Nossa Senhora Aparecida, Brazil
Current Conditions -  °F | °C
As of 6:00 AM on Sunday 23 Nov 2014 (Local Time) from SBAR Reporting Station
Scattered Clouds Scattered Clouds  
Wind Chill: 73°   Ceiling: Unl
Heat Index: 73°   Visibility: 6mi
Dew Point: 73°   Wind: 3mph
Humidity: 100%   Direction: 330°NNW
Pressure: 29.91"   Gusts: NA
Location:  10.44°S, 37.49°W
Report Text: SBAR 230900Z 33003KT 9999 SCT015 23/23 Q1013
Loading
Personal Weather Stations






























Interactive Weather Map New forecast layout! Learn more

10-Day Weather Forecast

Advertisements
Track Severe Weather on mobile